sensor_id;sensor_type;location;lat;lon;timestamp;P1;durP1;ratioP1;P2;durP2;ratioP2
15693;SDS011;7947;48.834;9.132;2023-12-20T00:01:38;1.00;;;0.70;;
15693;SDS011;7947;48.834;9.132;2023-12-20T00:04:41;1.10;;;0.87;;
15693;SDS011;7947;48.834;9.132;2023-12-20T00:07:45;1.07;;;0.67;;
15693;SDS011;7947;48.834;9.132;2023-12-20T00:10:49;0.83;;;0.60;;
15693;SDS011;7947;48.834;9.132;2023-12-20T00:13:52;1.00;;;0.67;;
15693;SDS011;7947;48.834;9.132;2023-12-20T00:16:55;1.10;;;0.83;;
15693;SDS011;7947;48.834;9.132;2023-12-20T00:19:58;0.93;;;0.83;;
15693;SDS011;7947;48.834;9.132;2023-12-20T00:23:02;0.77;;;0.70;;
15693;SDS011;7947;48.834;9.132;2023-12-20T00:26:06;1.30;;;1.00;;
15693;SDS011;7947;48.834;9.132;2023-12-20T00:29:08;1.40;;;0.90;;
15693;SDS011;7947;48.834;9.132;2023-12-20T00:32:11;1.63;;;0.90;;
15693;SDS011;7947;48.834;9.132;2023-12-20T00:35:14;1.00;;;0.87;;
15693;SDS011;7947;48.834;9.132;2023-12-20T00:38:20;1.13;;;0.60;;
15693;SDS011;7947;48.834;9.132;2023-12-20T00:41:23;0.87;;;0.73;;
15693;SDS011;7947;48.834;9.132;2023-12-20T00:44:25;1.53;;;0.87;;
15693;SDS011;7947;48.834;9.132;2023-12-20T00:47:28;1.03;;;0.73;;
15693;SDS011;7947;48.834;9.132;2023-12-20T00:50:31;1.20;;;0.90;;
15693;SDS011;7947;48.834;9.132;2023-12-20T00:53:35;2.70;;;1.93;;
15693;SDS011;7947;48.834;9.132;2023-12-20T00:56:38;2.37;;;1.17;;
15693;SDS011;7947;48.834;9.132;2023-12-20T00:59:41;1.30;;;0.77;;
15693;SDS011;7947;48.834;9.132;2023-12-20T01:02:44;2.10;;;1.00;;
15693;SDS011;7947;48.834;9.132;2023-12-20T01:05:48;2.00;;;0.90;;
15693;SDS011;7947;48.834;9.132;2023-12-20T01:08:52;1.03;;;0.93;;
15693;SDS011;7947;48.834;9.132;2023-12-20T01:11:58;1.20;;;0.87;;
15693;SDS011;7947;48.834;9.132;2023-12-20T01:15:01;1.17;;;0.90;;
15693;SDS011;7947;48.834;9.132;2023-12-20T01:18:04;1.60;;;1.00;;
15693;SDS011;7947;48.834;9.132;2023-12-20T01:21:07;1.07;;;0.80;;
15693;SDS011;7947;48.834;9.132;2023-12-20T01:24:11;1.13;;;0.83;;
15693;SDS011;7947;48.834;9.132;2023-12-20T01:27:14;3.03;;;1.07;;
15693;SDS011;7947;48.834;9.132;2023-12-20T01:30:17;1.70;;;1.30;;
15693;SDS011;7947;48.834;9.132;2023-12-20T01:33:20;3.40;;;0.80;;
15693;SDS011;7947;48.834;9.132;2023-12-20T01:36:23;1.47;;;0.80;;
15693;SDS011;7947;48.834;9.132;2023-12-20T01:39:27;1.37;;;1.00;;
15693;SDS011;7947;48.834;9.132;2023-12-20T01:42:30;1.77;;;1.10;;
15693;SDS011;7947;48.834;9.132;2023-12-20T01:45:33;1.57;;;0.80;;
15693;SDS011;7947;48.834;9.132;2023-12-20T01:48:36;1.30;;;0.97;;
15693;SDS011;7947;48.834;9.132;2023-12-20T01:51:40;2.90;;;1.10;;
15693;SDS011;7947;48.834;9.132;2023-12-20T01:54:44;1.30;;;1.03;;
15693;SDS011;7947;48.834;9.132;2023-12-20T01:57:47;1.30;;;1.00;;
15693;SDS011;7947;48.834;9.132;2023-12-20T02:00:51;1.77;;;0.90;;
15693;SDS011;7947;48.834;9.132;2023-12-20T02:03:54;0.87;;;0.87;;
15693;SDS011;7947;48.834;9.132;2023-12-20T02:06:58;1.40;;;1.07;;
15693;SDS011;7947;48.834;9.132;2023-12-20T02:10:03;1.53;;;0.90;;
15693;SDS011;7947;48.834;9.132;2023-12-20T02:13:07;1.23;;;1.10;;
15693;SDS011;7947;48.834;9.132;2023-12-20T02:16:10;0.90;;;0.80;;
15693;SDS011;7947;48.834;9.132;2023-12-20T02:19:13;2.27;;;1.23;;
15693;SDS011;7947;48.834;9.132;2023-12-20T02:22:18;1.63;;;0.80;;
15693;SDS011;7947;48.834;9.132;2023-12-20T02:25:21;0.90;;;0.73;;
15693;SDS011;7947;48.834;9.132;2023-12-20T02:28:24;2.10;;;1.00;;
15693;SDS011;7947;48.834;9.132;2023-12-20T02:31:27;1.33;;;1.00;;
15693;SDS011;7947;48.834;9.132;2023-12-20T02:34:30;1.30;;;0.80;;
15693;SDS011;7947;48.834;9.132;2023-12-20T02:37:34;1.40;;;0.60;;
15693;SDS011;7947;48.834;9.132;2023-12-20T02:40:37;2.60;;;0.80;;
15693;SDS011;7947;48.834;9.132;2023-12-20T02:43:40;1.17;;;0.83;;
15693;SDS011;7947;48.834;9.132;2023-12-20T02:46:43;0.30;;;0.30;;
15693;SDS011;7947;48.834;9.132;2023-12-20T02:49:46;0.87;;;0.40;;
15693;SDS011;7947;48.834;9.132;2023-12-20T02:52:50;0.20;;;0.20;;
15693;SDS011;7947;48.834;9.132;2023-12-20T02:55:53;0.20;;;0.13;;
15693;SDS011;7947;48.834;9.132;2023-12-20T02:58:56;0.10;;;0.00;;
15693;SDS011;7947;48.834;9.132;2023-12-20T03:01:59;0.33;;;0.30;;
15693;SDS011;7947;48.834;9.132;2023-12-20T03:05:02;0.83;;;0.10;;
15693;SDS011;7947;48.834;9.132;2023-12-20T03:08:07;0.37;;;0.20;;
15693;SDS011;7947;48.834;9.132;2023-12-20T03:11:09;0.10;;;0.00;;
15693;SDS011;7947;48.834;9.132;2023-12-20T03:14:12;0.13;;;0.10;;
15693;SDS011;7947;48.834;9.132;2023-12-20T03:17:15;0.00;;;0.00;;
15693;SDS011;7947;48.834;9.132;2023-12-20T03:20:18;0.27;;;0.20;;
15693;SDS011;7947;48.834;9.132;2023-12-20T03:23:22;0.20;;;0.10;;
15693;SDS011;7947;48.834;9.132;2023-12-20T03:26:25;0.00;;;0.00;;
15693;SDS011;7947;48.834;9.132;2023-12-20T03:29:28;0.30;;;0.10;;
15693;SDS011;7947;48.834;9.132;2023-12-20T03:32:31;0.40;;;0.17;;
15693;SDS011;7947;48.834;9.132;2023-12-20T03:35:34;0.00;;;0.00;;
15693;SDS011;7947;48.834;9.132;2023-12-20T03:38:38;0.20;;;0.10;;
15693;SDS011;7947;48.834;9.132;2023-12-20T03:41:41;0.10;;;0.10;;
15693;SDS011;7947;48.834;9.132;2023-12-20T03:44:44;0.10;;;0.10;;
15693;SDS011;7947;48.834;9.132;2023-12-20T03:47:47;1.60;;;0.40;;
15693;SDS011;7947;48.834;9.132;2023-12-20T03:50:50;0.23;;;0.20;;
15693;SDS011;7947;48.834;9.132;2023-12-20T03:53:55;0.77;;;0.20;;
15693;SDS011;7947;48.834;9.132;2023-12-20T03:56:57;0.50;;;0.40;;
15693;SDS011;7947;48.834;9.132;2023-12-20T04:00:00;0.23;;;0.23;;
15693;SDS011;7947;48.834;9.132;2023-12-20T04:03:04;0.10;;;0.10;;
15693;SDS011;7947;48.834;9.132;2023-12-20T04:06:06;0.10;;;0.10;;
15693;SDS011;7947;48.834;9.132;2023-12-20T04:09:11;1.93;;;0.13;;
15693;SDS011;7947;48.834;9.132;2023-12-20T04:12:14;0.10;;;0.10;;
15693;SDS011;7947;48.834;9.132;2023-12-20T04:15:17;0.80;;;0.27;;
15693;SDS011;7947;48.834;9.132;2023-12-20T04:18:20;0.10;;;0.10;;
15693;SDS011;7947;48.834;9.132;2023-12-20T04:21:23;0.50;;;0.20;;
15693;SDS011;7947;48.834;9.132;2023-12-20T04:24:27;1.63;;;0.90;;
15693;SDS011;7947;48.834;9.132;2023-12-20T04:27:30;0.20;;;0.10;;
15693;SDS011;7947;48.834;9.132;2023-12-20T04:30:33;1.50;;;0.10;;
15693;SDS011;7947;48.834;9.132;2023-12-20T04:33:36;1.93;;;0.10;;
15693;SDS011;7947;48.834;9.132;2023-12-20T04:36:39;0.20;;;0.10;;
15693;SDS011;7947;48.834;9.132;2023-12-20T04:39:43;0.43;;;0.43;;
15693;SDS011;7947;48.834;9.132;2023-12-20T04:42:46;0.00;;;0.00;;
15693;SDS011;7947;48.834;9.132;2023-12-20T04:45:49;0.63;;;0.30;;
15693;SDS011;7947;48.834;9.132;2023-12-20T04:48:52;1.90;;;0.20;;
15693;SDS011;7947;48.834;9.132;2023-12-20T04:51:55;0.67;;;0.20;;
15693;SDS011;7947;48.834;9.132;2023-12-20T04:54:59;0.87;;;0.40;;
15693;SDS011;7947;48.834;9.132;2023-12-20T04:58:03;1.23;;;0.80;;
15693;SDS011;7947;48.834;9.132;2023-12-20T05:01:06;0.10;;;0.10;;
15693;SDS011;7947;48.834;9.132;2023-12-20T05:04:09;0.20;;;0.20;;
15693;SDS011;7947;48.834;9.132;2023-12-20T05:07:12;0.20;;;0.20;;
15693;SDS011;7947;48.834;9.132;2023-12-20T05:10:16;0.63;;;0.30;;
15693;SDS011;7947;48.834;9.132;2023-12-20T05:13:19;0.63;;;0.30;;
15693;SDS011;7947;48.834;9.132;2023-12-20T05:16:23;0.93;;;0.20;;
15693;SDS011;7947;48.834;9.132;2023-12-20T05:19:26;0.43;;;0.30;;
15693;SDS011;7947;48.834;9.132;2023-12-20T05:22:29;0.30;;;0.30;;
15693;SDS011;7947;48.834;9.132;2023-12-20T05:25:33;0.10;;;0.10;;
15693;SDS011;7947;48.834;9.132;2023-12-20T05:28:36;1.10;;;1.00;;
15693;SDS011;7947;48.834;9.132;2023-12-20T05:31:39;0.87;;;0.40;;
15693;SDS011;7947;48.834;9.132;2023-12-20T05:34:42;1.03;;;0.47;;
15693;SDS011;7947;48.834;9.132;2023-12-20T05:37:45;2.40;;;0.80;;
15693;SDS011;7947;48.834;9.132;2023-12-20T05:40:49;0.80;;;0.50;;
15693;SDS011;7947;48.834;9.132;2023-12-20T05:43:52;2.43;;;0.47;;
15693;SDS011;7947;48.834;9.132;2023-12-20T05:46:55;0.93;;;0.70;;
15693;SDS011;7947;48.834;9.132;2023-12-20T05:49:58;2.20;;;1.00;;
15693;SDS011;7947;48.834;9.132;2023-12-20T05:53:00;1.20;;;0.70;;
15693;SDS011;7947;48.834;9.132;2023-12-20T05:56:05;3.40;;;1.80;;
15693;SDS011;7947;48.834;9.132;2023-12-20T05:59:08;2.13;;;1.50;;
15693;SDS011;7947;48.834;9.132;2023-12-20T06:02:11;0.83;;;0.50;;
15693;SDS011;7947;48.834;9.132;2023-12-20T06:05:14;1.17;;;0.53;;
15693;SDS011;7947;48.834;9.132;2023-12-20T06:08:17;0.73;;;0.30;;
15693;SDS011;7947;48.834;9.132;2023-12-20T06:11:22;0.30;;;0.30;;
15693;SDS011;7947;48.834;9.132;2023-12-20T06:14:24;1.00;;;0.70;;
15693;SDS011;7947;48.834;9.132;2023-12-20T06:17:27;0.90;;;0.80;;
15693;SDS011;7947;48.834;9.132;2023-12-20T06:20:32;1.60;;;0.80;;
15693;SDS011;7947;48.834;9.132;2023-12-20T06:23:35;1.23;;;1.13;;
15693;SDS011;7947;48.834;9.132;2023-12-20T06:26:39;0.80;;;0.80;;
15693;SDS011;7947;48.834;9.132;2023-12-20T06:29:42;2.40;;;1.43;;
15693;SDS011;7947;48.834;9.132;2023-12-20T06:32:46;1.93;;;0.50;;
15693;SDS011;7947;48.834;9.132;2023-12-20T06:35:49;2.60;;;1.23;;
15693;SDS011;7947;48.834;9.132;2023-12-20T06:38:52;2.00;;;1.27;;
15693;SDS011;7947;48.834;9.132;2023-12-20T06:41:56;1.90;;;1.20;;
15693;SDS011;7947;48.834;9.132;2023-12-20T06:44:59;1.80;;;1.10;;
15693;SDS011;7947;48.834;9.132;2023-12-20T06:48:02;1.27;;;1.00;;
15693;SDS011;7947;48.834;9.132;2023-12-20T06:51:05;3.07;;;0.83;;
15693;SDS011;7947;48.834;9.132;2023-12-20T06:54:08;1.20;;;1.10;;
15693;SDS011;7947;48.834;9.132;2023-12-20T06:57:12;0.93;;;0.73;;
15693;SDS011;7947;48.834;9.132;2023-12-20T07:00:15;1.03;;;0.70;;
15693;SDS011;7947;48.834;9.132;2023-12-20T07:03:19;1.30;;;0.90;;
15693;SDS011;7947;48.834;9.132;2023-12-20T07:06:21;1.40;;;1.30;;
15693;SDS011;7947;48.834;9.132;2023-12-20T07:09:26;1.43;;;0.90;;
15693;SDS011;7947;48.834;9.132;2023-12-20T07:12:31;1.13;;;1.00;;
15693;SDS011;7947;48.834;9.132;2023-12-20T07:15:34;1.67;;;1.40;;
15693;SDS011;7947;48.834;9.132;2023-12-20T07:18:38;1.70;;;1.10;;
15693;SDS011;7947;48.834;9.132;2023-12-20T07:21:41;1.30;;;1.20;;
15693;SDS011;7947;48.834;9.132;2023-12-20T07:24:44;1.30;;;1.10;;
15693;SDS011;7947;48.834;9.132;2023-12-20T07:27:49;1.13;;;1.00;;
15693;SDS011;7947;48.834;9.132;2023-12-20T07:30:52;1.40;;;1.23;;
15693;SDS011;7947;48.834;9.132;2023-12-20T07:33:55;1.47;;;1.20;;
15693;SDS011;7947;48.834;9.132;2023-12-20T07:36:58;1.27;;;1.13;;
15693;SDS011;7947;48.834;9.132;2023-12-20T07:40:01;1.63;;;1.40;;
15693;SDS011;7947;48.834;9.132;2023-12-20T07:43:06;1.57;;;1.33;;
15693;SDS011;7947;48.834;9.132;2023-12-20T07:46:09;1.60;;;1.50;;
15693;SDS011;7947;48.834;9.132;2023-12-20T07:49:12;3.93;;;1.37;;
15693;SDS011;7947;48.834;9.132;2023-12-20T07:52:15;1.57;;;1.30;;
15693;SDS011;7947;48.834;9.132;2023-12-20T07:55:18;1.57;;;1.33;;
15693;SDS011;7947;48.834;9.132;2023-12-20T07:58:22;2.33;;;1.67;;
15693;SDS011;7947;48.834;9.132;2023-12-20T08:01:41;1.80;;;1.60;;
15693;SDS011;7947;48.834;9.132;2023-12-20T08:04:44;3.10;;;1.93;;
15693;SDS011;7947;48.834;9.132;2023-12-20T08:07:47;3.87;;;1.67;;
15693;SDS011;7947;48.834;9.132;2023-12-20T08:10:50;1.43;;;1.30;;
15693;SDS011;7947;48.834;9.132;2023-12-20T08:13:55;1.83;;;1.50;;
15693;SDS011;7947;48.834;9.132;2023-12-20T08:16:58;2.17;;;1.70;;
15693;SDS011;7947;48.834;9.132;2023-12-20T08:20:00;1.67;;;1.53;;
15693;SDS011;7947;48.834;9.132;2023-12-20T08:23:04;2.97;;;1.67;;
15693;SDS011;7947;48.834;9.132;2023-12-20T08:26:07;2.03;;;1.67;;
15693;SDS011;7947;48.834;9.132;2023-12-20T08:29:11;1.70;;;1.30;;
15693;SDS011;7947;48.834;9.132;2023-12-20T08:32:15;2.40;;;1.50;;
15693;SDS011;7947;48.834;9.132;2023-12-20T08:35:18;1.37;;;1.23;;
15693;SDS011;7947;48.834;9.132;2023-12-20T08:38:21;1.73;;;1.50;;
15693;SDS011;7947;48.834;9.132;2023-12-20T08:41:24;1.53;;;1.43;;
15693;SDS011;7947;48.834;9.132;2023-12-20T08:44:28;3.77;;;1.70;;
15693;SDS011;7947;48.834;9.132;2023-12-20T08:47:31;2.17;;;1.50;;
15693;SDS011;7947;48.834;9.132;2023-12-20T08:50:34;1.87;;;1.40;;
15693;SDS011;7947;48.834;9.132;2023-12-20T08:53:38;1.97;;;1.40;;
15693;SDS011;7947;48.834;9.132;2023-12-20T08:56:40;2.60;;;1.60;;
15693;SDS011;7947;48.834;9.132;2023-12-20T08:59:45;2.20;;;1.57;;
15693;SDS011;7947;48.834;9.132;2023-12-20T09:02:48;2.03;;;1.60;;
15693;SDS011;7947;48.834;9.132;2023-12-20T09:05:50;5.07;;;2.13;;
15693;SDS011;7947;48.834;9.132;2023-12-20T09:08:53;3.17;;;1.60;;
15693;SDS011;7947;48.834;9.132;2023-12-20T09:11:56;2.37;;;1.47;;
15693;SDS011;7947;48.834;9.132;2023-12-20T09:15:01;4.60;;;1.30;;
15693;SDS011;7947;48.834;9.132;2023-12-20T09:18:04;1.93;;;1.70;;
15693;SDS011;7947;48.834;9.132;2023-12-20T09:21:08;6.03;;;1.60;;
15693;SDS011;7947;48.834;9.132;2023-12-20T09:24:11;4.00;;;1.57;;
15693;SDS011;7947;48.834;9.132;2023-12-20T09:27:14;2.90;;;1.30;;
15693;SDS011;7947;48.834;9.132;2023-12-20T09:30:18;2.13;;;1.27;;
15693;SDS011;7947;48.834;9.132;2023-12-20T09:33:28;2.13;;;0.87;;
15693;SDS011;7947;48.834;9.132;2023-12-20T09:36:31;2.50;;;1.10;;
15693;SDS011;7947;48.834;9.132;2023-12-20T09:39:37;1.47;;;0.90;;
15693;SDS011;7947;48.834;9.132;2023-12-20T09:42:44;0.73;;;0.70;;
15693;SDS011;7947;48.834;9.132;2023-12-20T09:45:53;1.57;;;0.67;;
15693;SDS011;7947;48.834;9.132;2023-12-20T09:48:57;2.63;;;1.00;;
15693;SDS011;7947;48.834;9.132;2023-12-20T09:52:02;1.73;;;0.90;;
15693;SDS011;7947;48.834;9.132;2023-12-20T09:55:07;2.63;;;0.90;;
15693;SDS011;7947;48.834;9.132;2023-12-20T09:58:11;2.07;;;1.00;;
15693;SDS011;7947;48.834;9.132;2023-12-20T10:01:15;0.93;;;0.60;;
15693;SDS011;7947;48.834;9.132;2023-12-20T10:04:18;4.13;;;1.10;;
15693;SDS011;7947;48.834;9.132;2023-12-20T10:07:30;2.10;;;0.90;;
15693;SDS011;7947;48.834;9.132;2023-12-20T10:10:34;2.73;;;0.87;;
15693;SDS011;7947;48.834;9.132;2023-12-20T10:13:48;1.50;;;0.80;;
15693;SDS011;7947;48.834;9.132;2023-12-20T10:16:52;3.57;;;0.73;;
15693;SDS011;7947;48.834;9.132;2023-12-20T10:19:56;1.03;;;0.67;;
15693;SDS011;7947;48.834;9.132;2023-12-20T10:23:00;3.47;;;0.87;;
15693;SDS011;7947;48.834;9.132;2023-12-20T10:26:04;2.33;;;0.90;;
15693;SDS011;7947;48.834;9.132;2023-12-20T10:29:06;2.10;;;0.97;;
15693;SDS011;7947;48.834;9.132;2023-12-20T10:32:23;5.43;;;1.03;;
15693;SDS011;7947;48.834;9.132;2023-12-20T10:35:27;1.60;;;0.70;;
15693;SDS011;7947;48.834;9.132;2023-12-20T10:38:30;3.13;;;1.00;;
15693;SDS011;7947;48.834;9.132;2023-12-20T10:41:33;2.27;;;1.07;;
15693;SDS011;7947;48.834;9.132;2023-12-20T10:44:42;1.30;;;0.80;;
15693;SDS011;7947;48.834;9.132;2023-12-20T10:47:47;3.97;;;0.67;;
15693;SDS011;7947;48.834;9.132;2023-12-20T10:50:52;2.80;;;0.80;;
15693;SDS011;7947;48.834;9.132;2023-12-20T10:53:58;1.80;;;0.73;;
15693;SDS011;7947;48.834;9.132;2023-12-20T10:57:01;3.93;;;0.80;;
15693;SDS011;7947;48.834;9.132;2023-12-20T11:00:08;1.63;;;0.90;;
15693;SDS011;7947;48.834;9.132;2023-12-20T11:03:18;1.47;;;0.63;;
15693;SDS011;7947;48.834;9.132;2023-12-20T11:06:27;2.10;;;0.70;;
15693;SDS011;7947;48.834;9.132;2023-12-20T11:09:38;2.53;;;1.10;;
15693;SDS011;7947;48.834;9.132;2023-12-20T11:12:47;2.10;;;1.10;;
15693;SDS011;7947;48.834;9.132;2023-12-20T11:15:54;4.77;;;0.90;;
15693;SDS011;7947;48.834;9.132;2023-12-20T11:18:59;1.67;;;0.97;;
15693;SDS011;7947;48.834;9.132;2023-12-20T11:22:08;1.67;;;0.97;;
15693;SDS011;7947;48.834;9.132;2023-12-20T11:25:12;3.57;;;1.13;;
15693;SDS011;7947;48.834;9.132;2023-12-20T11:28:15;2.70;;;0.80;;
15693;SDS011;7947;48.834;9.132;2023-12-20T11:31:19;5.57;;;1.30;;
15693;SDS011;7947;48.834;9.132;2023-12-20T11:34:23;1.87;;;1.03;;
15693;SDS011;7947;48.834;9.132;2023-12-20T11:37:30;2.23;;;0.90;;
15693;SDS011;7947;48.834;9.132;2023-12-20T11:40:34;2.83;;;1.20;;
15693;SDS011;7947;48.834;9.132;2023-12-20T11:43:39;1.47;;;0.80;;
15693;SDS011;7947;48.834;9.132;2023-12-20T11:46:42;2.43;;;1.20;;
15693;SDS011;7947;48.834;9.132;2023-12-20T11:49:48;3.37;;;1.27;;
15693;SDS011;7947;48.834;9.132;2023-12-20T11:52:52;2.77;;;1.13;;
15693;SDS011;7947;48.834;9.132;2023-12-20T11:55:56;2.53;;;1.33;;
15693;SDS011;7947;48.834;9.132;2023-12-20T11:58:59;3.50;;;1.30;;
15693;SDS011;7947;48.834;9.132;2023-12-20T12:02:20;7.17;;;1.00;;
15693;SDS011;7947;48.834;9.132;2023-12-20T12:05:26;2.37;;;0.87;;
15693;SDS011;7947;48.834;9.132;2023-12-20T12:08:29;4.57;;;1.23;;
15693;SDS011;7947;48.834;9.132;2023-12-20T12:11:32;2.43;;;1.30;;
15693;SDS011;7947;48.834;9.132;2023-12-20T12:14:35;2.37;;;1.00;;
15693;SDS011;7947;48.834;9.132;2023-12-20T12:17:38;2.90;;;1.30;;
15693;SDS011;7947;48.834;9.132;2023-12-20T12:20:43;2.10;;;0.90;;
15693;SDS011;7947;48.834;9.132;2023-12-20T12:23:46;3.10;;;1.23;;
15693;SDS011;7947;48.834;9.132;2023-12-20T12:26:52;2.67;;;0.83;;
15693;SDS011;7947;48.834;9.132;2023-12-20T12:30:01;3.60;;;1.30;;
15693;SDS011;7947;48.834;9.132;2023-12-20T12:33:06;4.63;;;1.00;;
15693;SDS011;7947;48.834;9.132;2023-12-20T12:36:10;1.50;;;0.80;;
15693;SDS011;7947;48.834;9.132;2023-12-20T12:39:17;5.63;;;1.07;;
15693;SDS011;7947;48.834;9.132;2023-12-20T12:42:21;1.83;;;0.90;;
15693;SDS011;7947;48.834;9.132;2023-12-20T12:45:27;3.77;;;0.83;;
15693;SDS011;7947;48.834;9.132;2023-12-20T12:48:30;4.07;;;1.23;;
15693;SDS011;7947;48.834;9.132;2023-12-20T12:51:35;7.70;;;1.27;;
15693;SDS011;7947;48.834;9.132;2023-12-20T12:54:38;5.17;;;1.00;;
15693;SDS011;7947;48.834;9.132;2023-12-20T12:57:41;2.27;;;1.50;;
15693;SDS011;7947;48.834;9.132;2023-12-20T13:00:45;3.63;;;1.07;;
15693;SDS011;7947;48.834;9.132;2023-12-20T13:03:48;6.07;;;0.93;;
15693;SDS011;7947;48.834;9.132;2023-12-20T13:06:53;2.60;;;1.07;;
15693;SDS011;7947;48.834;9.132;2023-12-20T13:09:56;3.00;;;0.90;;
15693;SDS011;7947;48.834;9.132;2023-12-20T13:12:59;2.87;;;0.90;;
15693;SDS011;7947;48.834;9.132;2023-12-20T13:16:02;7.87;;;1.30;;
15693;SDS011;7947;48.834;9.132;2023-12-20T13:19:05;3.80;;;0.97;;
15693;SDS011;7947;48.834;9.132;2023-12-20T13:22:10;1.37;;;0.70;;
15693;SDS011;7947;48.834;9.132;2023-12-20T13:25:13;1.10;;;0.60;;
15693;SDS011;7947;48.834;9.132;2023-12-20T13:28:16;1.30;;;1.10;;
15693;SDS011;7947;48.834;9.132;2023-12-20T13:31:20;2.80;;;0.80;;
15693;SDS011;7947;48.834;9.132;2023-12-20T13:34:23;4.13;;;0.90;;
15693;SDS011;7947;48.834;9.132;2023-12-20T13:37:27;3.33;;;1.57;;
15693;SDS011;7947;48.834;9.132;2023-12-20T13:40:30;1.53;;;0.50;;
15693;SDS011;7947;48.834;9.132;2023-12-20T13:43:34;2.00;;;0.70;;
15693;SDS011;7947;48.834;9.132;2023-12-20T13:46:37;1.93;;;0.90;;
15693;SDS011;7947;48.834;9.132;2023-12-20T13:49:40;0.93;;;0.77;;
15693;SDS011;7947;48.834;9.132;2023-12-20T13:52:44;2.50;;;1.17;;
15693;SDS011;7947;48.834;9.132;2023-12-20T13:55:47;1.50;;;0.87;;
15693;SDS011;7947;48.834;9.132;2023-12-20T13:58:51;1.53;;;0.60;;
15693;SDS011;7947;48.834;9.132;2023-12-20T14:01:54;3.40;;;0.93;;
15693;SDS011;7947;48.834;9.132;2023-12-20T14:04:58;1.73;;;1.07;;
15693;SDS011;7947;48.834;9.132;2023-12-20T14:08:03;2.27;;;1.20;;
15693;SDS011;7947;48.834;9.132;2023-12-20T14:11:07;1.97;;;1.20;;
15693;SDS011;7947;48.834;9.132;2023-12-20T14:14:09;5.47;;;2.00;;
15693;SDS011;7947;48.834;9.132;2023-12-20T14:17:12;3.60;;;0.90;;
15693;SDS011;7947;48.834;9.132;2023-12-20T14:20:15;5.60;;;1.50;;
15693;SDS011;7947;48.834;9.132;2023-12-20T14:23:20;2.73;;;1.00;;
15693;SDS011;7947;48.834;9.132;2023-12-20T14:26:24;2.50;;;1.23;;
15693;SDS011;7947;48.834;9.132;2023-12-20T14:29:27;5.23;;;0.90;;
15693;SDS011;7947;48.834;9.132;2023-12-20T14:32:30;3.83;;;1.10;;
15693;SDS011;7947;48.834;9.132;2023-12-20T14:35:33;2.67;;;1.27;;
15693;SDS011;7947;48.834;9.132;2023-12-20T14:38:38;6.23;;;1.60;;
15693;SDS011;7947;48.834;9.132;2023-12-20T14:41:41;5.13;;;1.73;;
15693;SDS011;7947;48.834;9.132;2023-12-20T14:44:44;3.07;;;1.40;;
15693;SDS011;7947;48.834;9.132;2023-12-20T14:47:47;4.50;;;0.90;;
15693;SDS011;7947;48.834;9.132;2023-12-20T14:50:51;5.97;;;1.20;;
15693;SDS011;7947;48.834;9.132;2023-12-20T14:53:55;3.30;;;1.00;;
15693;SDS011;7947;48.834;9.132;2023-12-20T14:56:59;5.90;;;1.13;;
15693;SDS011;7947;48.834;9.132;2023-12-20T15:00:06;2.67;;;1.00;;
15693;SDS011;7947;48.834;9.132;2023-12-20T15:03:10;1.27;;;1.10;;
15693;SDS011;7947;48.834;9.132;2023-12-20T15:06:13;1.50;;;1.23;;
15693;SDS011;7947;48.834;9.132;2023-12-20T15:09:17;4.53;;;2.30;;
15693;SDS011;7947;48.834;9.132;2023-12-20T15:12:20;7.63;;;1.70;;
15693;SDS011;7947;48.834;9.132;2023-12-20T15:15:24;3.77;;;1.37;;
15693;SDS011;7947;48.834;9.132;2023-12-20T15:18:30;5.87;;;2.03;;
15693;SDS011;7947;48.834;9.132;2023-12-20T15:21:33;4.53;;;1.90;;
15693;SDS011;7947;48.834;9.132;2023-12-20T15:24:45;3.30;;;1.50;;
15693;SDS011;7947;48.834;9.132;2023-12-20T15:27:48;6.43;;;1.40;;
15693;SDS011;7947;48.834;9.132;2023-12-20T15:30:54;3.17;;;0.93;;
15693;SDS011;7947;48.834;9.132;2023-12-20T15:33:58;3.43;;;1.30;;
15693;SDS011;7947;48.834;9.132;2023-12-20T15:37:01;1.97;;;1.03;;
15693;SDS011;7947;48.834;9.132;2023-12-20T15:40:06;2.67;;;1.10;;
15693;SDS011;7947;48.834;9.132;2023-12-20T15:43:12;5.17;;;1.00;;
15693;SDS011;7947;48.834;9.132;2023-12-20T15:46:14;2.17;;;0.80;;
15693;SDS011;7947;48.834;9.132;2023-12-20T15:49:17;5.30;;;1.07;;
15693;SDS011;7947;48.834;9.132;2023-12-20T15:52:20;1.67;;;0.93;;
15693;SDS011;7947;48.834;9.132;2023-12-20T15:55:25;3.03;;;1.03;;
15693;SDS011;7947;48.834;9.132;2023-12-20T15:58:28;3.53;;;1.00;;
15693;SDS011;7947;48.834;9.132;2023-12-20T16:01:31;3.37;;;1.33;;
15693;SDS011;7947;48.834;9.132;2023-12-20T16:04:37;4.60;;;0.97;;
15693;SDS011;7947;48.834;9.132;2023-12-20T16:07:40;1.93;;;0.73;;
15693;SDS011;7947;48.834;9.132;2023-12-20T16:10:45;1.97;;;0.93;;
15693;SDS011;7947;48.834;9.132;2023-12-20T16:13:48;3.90;;;1.00;;
15693;SDS011;7947;48.834;9.132;2023-12-20T16:16:52;8.00;;;1.13;;
15693;SDS011;7947;48.834;9.132;2023-12-20T16:19:55;6.20;;;1.37;;
15693;SDS011;7947;48.834;9.132;2023-12-20T16:22:58;2.90;;;1.00;;
15693;SDS011;7947;48.834;9.132;2023-12-20T16:26:02;4.37;;;1.10;;
15693;SDS011;7947;48.834;9.132;2023-12-20T16:29:05;2.37;;;1.13;;
15693;SDS011;7947;48.834;9.132;2023-12-20T16:32:08;1.50;;;0.80;;
15693;SDS011;7947;48.834;9.132;2023-12-20T16:35:11;3.07;;;0.80;;
15693;SDS011;7947;48.834;9.132;2023-12-20T16:38:14;3.20;;;0.87;;
15693;SDS011;7947;48.834;9.132;2023-12-20T16:41:18;2.47;;;0.80;;
15693;SDS011;7947;48.834;9.132;2023-12-20T16:44:21;2.17;;;0.93;;
15693;SDS011;7947;48.834;9.132;2023-12-20T16:47:24;3.10;;;1.20;;
15693;SDS011;7947;48.834;9.132;2023-12-20T16:50:27;3.03;;;1.23;;
15693;SDS011;7947;48.834;9.132;2023-12-20T16:53:33;6.33;;;2.33;;
15693;SDS011;7947;48.834;9.132;2023-12-20T16:56:37;2.63;;;1.00;;
15693;SDS011;7947;48.834;9.132;2023-12-20T16:59:41;2.70;;;1.00;;
15693;SDS011;7947;48.834;9.132;2023-12-20T17:02:44;4.13;;;1.13;;
15693;SDS011;7947;48.834;9.132;2023-12-20T17:05:47;3.63;;;1.20;;
15693;SDS011;7947;48.834;9.132;2023-12-20T17:08:51;2.40;;;0.90;;
15693;SDS011;7947;48.834;9.132;2023-12-20T17:11:55;3.20;;;1.37;;
15693;SDS011;7947;48.834;9.132;2023-12-20T17:14:58;2.50;;;1.10;;
15693;SDS011;7947;48.834;9.132;2023-12-20T17:18:02;1.73;;;1.00;;
15693;SDS011;7947;48.834;9.132;2023-12-20T17:21:07;2.20;;;0.93;;
15693;SDS011;7947;48.834;9.132;2023-12-20T17:24:10;3.10;;;0.93;;
15693;SDS011;7947;48.834;9.132;2023-12-20T17:27:15;3.47;;;0.77;;
15693;SDS011;7947;48.834;9.132;2023-12-20T17:30:18;2.90;;;1.37;;
15693;SDS011;7947;48.834;9.132;2023-12-20T17:33:21;0.80;;;0.53;;
15693;SDS011;7947;48.834;9.132;2023-12-20T17:36:24;1.97;;;0.83;;
15693;SDS011;7947;48.834;9.132;2023-12-20T17:39:27;1.77;;;0.83;;
15693;SDS011;7947;48.834;9.132;2023-12-20T17:42:32;1.57;;;0.80;;
15693;SDS011;7947;48.834;9.132;2023-12-20T17:45:35;5.60;;;1.43;;
15693;SDS011;7947;48.834;9.132;2023-12-20T17:48:38;1.80;;;0.80;;
15693;SDS011;7947;48.834;9.132;2023-12-20T17:51:41;5.53;;;1.20;;
15693;SDS011;7947;48.834;9.132;2023-12-20T17:54:44;1.63;;;0.90;;
15693;SDS011;7947;48.834;9.132;2023-12-20T17:57:48;3.10;;;1.07;;
15693;SDS011;7947;48.834;9.132;2023-12-20T18:00:52;2.00;;;0.83;;
15693;SDS011;7947;48.834;9.132;2023-12-20T18:03:55;1.43;;;0.93;;
15693;SDS011;7947;48.834;9.132;2023-12-20T18:06:58;1.27;;;0.60;;
15693;SDS011;7947;48.834;9.132;2023-12-20T18:10:01;1.47;;;0.60;;
15693;SDS011;7947;48.834;9.132;2023-12-20T18:13:06;1.10;;;0.67;;
15693;SDS011;7947;48.834;9.132;2023-12-20T18:16:09;0.87;;;0.53;;
15693;SDS011;7947;48.834;9.132;2023-12-20T18:19:12;1.13;;;0.60;;
15693;SDS011;7947;48.834;9.132;2023-12-20T18:22:16;0.97;;;0.50;;
15693;SDS011;7947;48.834;9.132;2023-12-20T18:25:19;1.07;;;0.37;;
15693;SDS011;7947;48.834;9.132;2023-12-20T18:28:23;1.30;;;0.70;;
15693;SDS011;7947;48.834;9.132;2023-12-20T18:31:26;1.73;;;0.60;;
15693;SDS011;7947;48.834;9.132;2023-12-20T18:34:28;2.40;;;0.53;;
15693;SDS011;7947;48.834;9.132;2023-12-20T18:37:35;1.20;;;0.67;;
15693;SDS011;7947;48.834;9.132;2023-12-20T18:40:38;1.03;;;0.50;;
15693;SDS011;7947;48.834;9.132;2023-12-20T18:43:49;1.33;;;0.63;;